Terminal Aerodrome Forecast
Issued by NWS Duluth, MN

Home | Current Version | Previous Version | Text Only | Print | Product List | Glossary On
Versions: 1 2 3 4 5 6 7 8 9 10 11 12 13 14 15 16
000
FTUS43 KDLH 010500
TAFDLH
TAF
KDLH 010528Z 0106/0206 13008KT P6SM BKN100
     FM011200 VRB05KT P6SM BKN100
     FM011700 21010KT P6SM VCSH BKN050
     FM012100 19007KT P6SM SCT250=

USA.gov is the U.S. government's official web portal to all federal, state and local government web resources and services.